CheckWX is a tool to help pilots better visualize weather data.  It is not intended as a substitute for an official pre-flight weather briefing.

12:45:31 UTC

KDCA METAR
Ronald Reagan Washington National Airport
Washington, Virginia, USA
Current

21 mins ago

KDCA 251225Z 19005KT 4SM -RA BR OVC008 08/08 A2987 RMK AO2 P0004 T00830078
Observed
Feb-25 @ 12:25 UTC
Wind
  • 190° at 5 KTS
Visibility
4 SM
Flight Rules
IFR
Conditions
Light Rain, Mist
Cloud Levels
  • Overcast at 800' AGL
Temperature
C / 46°F
Dewpoint
C / 46°F
Humidity
100%
Altimeter
29.87" Hg
Pressure
1011.52 hPa
Current Rain
0.04"
Previous

54 mins ago

KDCA 251152Z 18004KT 4SM -RA BR OVC007 08/08 A2986 RMK AO2 SLP111 P0003 60003 70003 T00830078 10083 20078 58005
Observed
Feb-25 @ 11:52 UTC
Wind
  • 180° at 4 KTS
Visibility
4 SM
Flight Rules
IFR
Conditions
Light Rain, Mist
Cloud Levels
  • Overcast at 700' AGL
Temperature
C / 46°F
Dewpoint
C / 46°F
Humidity
100%
Altimeter
29.86" Hg
Pressure
1011.22 hPa
Current Rain
0.03"
24 Hour Rain
0.03"
Previous

2 hours ago

KDCA 251052Z 19006KT 6SM -RA BR OVC007 08/08 A2987 RMK AO2 DZE47RAB14E20B47 SLP113 P0000 T00830078
Observed
Feb-25 @ 10:52 UTC
Wind
  • 190° at 6 KTS
Visibility
6 SM
Flight Rules
IFR
Conditions
Light Rain, Mist
Cloud Levels
  • Overcast at 700' AGL
Temperature
C / 46°F
Dewpoint
C / 46°F
Humidity
100%
Altimeter
29.87" Hg
Pressure
1011.52 hPa
Current Rain
0.01"